sensor_id;sensor_type;location;lat;lon;timestamp;pressure;altitude;pressure_sealevel;temperature;humidity
78573;BME280;67862;0.000;0.000;2023-03-14T00:00:54;98413.31;;;21.94;62.25
78573;BME280;67862;0.000;0.000;2023-03-14T00:03:20;98403.19;;;21.95;62.15
78573;BME280;67862;0.000;0.000;2023-03-14T00:05:45;98410.59;;;21.94;62.32
78573;BME280;67862;0.000;0.000;2023-03-14T00:08:10;98399.34;;;21.96;62.17
78573;BME280;67862;0.000;0.000;2023-03-14T00:10:36;98402.38;;;21.94;62.06
78573;BME280;67862;0.000;0.000;2023-03-14T00:13:01;98399.16;;;21.92;62.40
78573;BME280;67862;0.000;0.000;2023-03-14T00:15:27;98390.31;;;21.95;62.32
78573;BME280;67862;0.000;0.000;2023-03-14T00:17:52;98384.88;;;21.95;62.78
78573;BME280;67862;0.000;0.000;2023-03-14T00:20:18;98372.97;;;21.91;62.67
78573;BME280;67862;0.000;0.000;2023-03-14T00:22:43;98378.91;;;21.93;62.33
78573;BME280;67862;0.000;0.000;2023-03-14T00:25:09;98381.44;;;21.90;62.37
78573;BME280;67862;0.000;0.000;2023-03-14T00:27:35;98374.88;;;21.91;62.48
78573;BME280;67862;0.000;0.000;2023-03-14T00:30:01;98366.16;;;21.89;62.30
78573;BME280;67862;0.000;0.000;2023-03-14T00:32:26;98364.25;;;21.89;62.83
78573;BME280;67862;0.000;0.000;2023-03-14T00:34:52;98355.25;;;21.89;62.32
78573;BME280;67862;0.000;0.000;2023-03-14T00:37:17;98349.47;;;21.90;62.70
78573;BME280;67862;0.000;0.000;2023-03-14T00:39:55;98349.59;;;21.85;62.83
78573;BME280;67862;0.000;0.000;2023-03-14T00:42:20;98339.47;;;21.86;62.83
78573;BME280;67862;0.000;0.000;2023-03-14T00:44:45;98345.13;;;21.89;62.79
78573;BME280;67862;0.000;0.000;2023-03-14T00:47:11;98340.47;;;21.90;62.64
78573;BME280;67862;0.000;0.000;2023-03-14T00:49:36;98333.38;;;21.89;62.26
78573;BME280;67862;0.000;0.000;2023-03-14T00:52:01;98326.63;;;21.86;62.07
78573;BME280;67862;0.000;0.000;2023-03-14T00:54:30;98335.63;;;21.87;62.31
78573;BME280;67862;0.000;0.000;2023-03-14T00:56:55;98323.56;;;21.88;62.27
78573;BME280;67862;0.000;0.000;2023-03-14T00:59:20;98324.88;;;21.90;62.16
78573;BME280;67862;0.000;0.000;2023-03-14T01:04:40;98314.56;;;21.87;62.12
78573;BME280;67862;0.000;0.000;2023-03-14T01:07:08;98321.66;;;21.88;62.23
78573;BME280;67862;0.000;0.000;2023-03-14T01:09:33;98305.25;;;21.88;62.32
78573;BME280;67862;0.000;0.000;2023-03-14T01:11:59;98309.09;;;21.87;62.44
78573;BME280;67862;0.000;0.000;2023-03-14T01:14:24;98300.44;;;21.85;62.02
78573;BME280;67862;0.000;0.000;2023-03-14T01:16:49;98306.22;;;21.84;62.19
78573;BME280;67862;0.000;0.000;2023-03-14T01:19:15;98295.59;;;21.82;62.22
78573;BME280;67862;0.000;0.000;2023-03-14T01:21:40;98291.75;;;21.83;62.37
78573;BME280;67862;0.000;0.000;2023-03-14T01:24:06;98288.00;;;21.79;62.09
78573;BME280;67862;0.000;0.000;2023-03-14T01:26:34;98283.06;;;21.81;61.84
78573;BME280;67862;0.000;0.000;2023-03-14T01:29:00;98285.28;;;21.79;62.14
78573;BME280;67862;0.000;0.000;2023-03-14T01:31:26;98275.47;;;21.78;62.01
78573;BME280;67862;0.000;0.000;2023-03-14T01:33:52;98268.56;;;21.81;61.67
78573;BME280;67862;0.000;0.000;2023-03-14T01:36:17;98273.56;;;21.79;62.32
78573;BME280;67862;0.000;0.000;2023-03-14T01:38:43;98257.16;;;21.79;62.02
78573;BME280;67862;0.000;0.000;2023-03-14T01:41:12;98245.91;;;21.80;61.79
78573;BME280;67862;0.000;0.000;2023-03-14T01:43:37;98248.66;;;21.80;62.06
78573;BME280;67862;0.000;0.000;2023-03-14T01:48:34;98238.22;;;21.82;62.66
78573;BME280;67862;0.000;0.000;2023-03-14T01:51:00;98238.03;;;21.79;62.36
78573;BME280;67862;0.000;0.000;2023-03-14T01:53:27;98235.50;;;21.82;62.32
78573;BME280;67862;0.000;0.000;2023-03-14T01:55:53;98235.50;;;21.82;62.23
78573;BME280;67862;0.000;0.000;2023-03-14T01:58:21;98222.97;;;21.81;62.15
78573;BME280;67862;0.000;0.000;2023-03-14T02:00:47;98216.19;;;21.79;62.16
78573;BME280;67862;0.000;0.000;2023-03-14T02:03:16;98215.88;;;21.80;62.72
78573;BME280;67862;0.000;0.000;2023-03-14T02:05:42;98211.19;;;21.81;62.67
78573;BME280;67862;0.000;0.000;2023-03-14T02:08:12;98211.53;;;21.79;62.65
78573;BME280;67862;0.000;0.000;2023-03-14T02:10:40;98211.03;;;21.77;62.91
78573;BME280;67862;0.000;0.000;2023-03-14T02:13:06;98207.66;;;21.80;62.95
78573;BME280;67862;0.000;0.000;2023-03-14T02:15:32;98208.31;;;21.77;62.95
78573;BME280;67862;0.000;0.000;2023-03-14T02:17:57;98196.91;;;21.75;63.05
78573;BME280;67862;0.000;0.000;2023-03-14T02:23:07;98189.19;;;21.77;62.55
78573;BME280;67862;0.000;0.000;2023-03-14T02:27:58;98175.53;;;21.77;62.91
78573;BME280;67862;0.000;0.000;2023-03-14T02:30:25;98176.00;;;21.79;62.88
78573;BME280;67862;0.000;0.000;2023-03-14T02:32:54;98165.41;;;21.78;62.90
78573;BME280;67862;0.000;0.000;2023-03-14T02:35:22;98163.47;;;21.78;62.70
78573;BME280;67862;0.000;0.000;2023-03-14T02:37:53;98170.06;;;21.77;62.88
78573;BME280;67862;0.000;0.000;2023-03-14T02:40:20;98155.94;;;21.75;62.56
78573;BME280;67862;0.000;0.000;2023-03-14T02:42:46;98158.66;;;21.75;62.82
78573;BME280;67862;0.000;0.000;2023-03-14T02:47:37;98148.84;;;21.74;62.29
78573;BME280;67862;0.000;0.000;2023-03-14T02:50:10;98150.78;;;21.74;62.59
78573;BME280;67862;0.000;0.000;2023-03-14T02:52:37;98154.31;;;21.74;62.16
78573;BME280;67862;0.000;0.000;2023-03-14T02:55:02;98143.72;;;21.73;62.44
78573;BME280;67862;0.000;0.000;2023-03-14T02:57:28;98137.59;;;21.76;62.11
78573;BME280;67862;0.000;0.000;2023-03-14T02:59:54;98124.75;;;21.76;62.47
78573;BME280;67862;0.000;0.000;2023-03-14T03:02:19;98134.06;;;21.75;62.33
78573;BME280;67862;0.000;0.000;2023-03-14T03:04:44;98131.34;;;21.75;62.12
78573;BME280;67862;0.000;0.000;2023-03-14T03:07:10;98124.59;;;21.73;62.77
78573;BME280;67862;0.000;0.000;2023-03-14T03:09:35;98118.31;;;21.72;62.42
78573;BME280;67862;0.000;0.000;2023-03-14T03:12:00;98118.31;;;21.72;62.69
78573;BME280;67862;0.000;0.000;2023-03-14T03:14:25;98114.28;;;21.69;62.60
78573;BME280;67862;0.000;0.000;2023-03-14T03:16:51;98116.22;;;21.69;62.49
78573;BME280;67862;0.000;0.000;2023-03-14T03:19:16;98114.59;;;21.68;62.64
78573;BME280;67862;0.000;0.000;2023-03-14T03:21:43;98110.75;;;21.69;62.39
78573;BME280;67862;0.000;0.000;2023-03-14T03:24:08;98115.72;;;21.67;62.66
78573;BME280;67862;0.000;0.000;2023-03-14T03:26:36;98111.88;;;21.68;62.75
78573;BME280;67862;0.000;0.000;2023-03-14T03:29:02;98114.59;;;21.68;62.69
78573;BME280;67862;0.000;0.000;2023-03-14T03:31:27;98109.16;;;21.68;62.99
78573;BME280;67862;0.000;0.000;2023-03-14T03:33:53;98107.53;;;21.67;62.66
78573;BME280;67862;0.000;0.000;2023-03-14T03:36:22;98098.22;;;21.68;63.07
78573;BME280;67862;0.000;0.000;2023-03-14T03:38:47;98101.75;;;21.68;63.03
78573;BME280;67862;0.000;0.000;2023-03-14T03:41:13;98093.41;;;21.65;63.33
78573;BME280;67862;0.000;0.000;2023-03-14T03:43:38;98091.78;;;21.64;62.71
78573;BME280;67862;0.000;0.000;2023-03-14T03:46:04;98091.78;;;21.64;63.04
78573;BME280;67862;0.000;0.000;2023-03-14T03:48:30;98096.78;;;21.62;62.92
78573;BME280;67862;0.000;0.000;2023-03-14T03:50:55;98107.19;;;21.60;63.57
78573;BME280;67862;0.000;0.000;2023-03-14T03:53:20;98104.97;;;21.62;63.21
78573;BME280;67862;0.000;0.000;2023-03-14T03:55:46;98090.81;;;21.60;62.86
78573;BME280;67862;0.000;0.000;2023-03-14T03:58:11;98082.13;;;21.58;63.29
78573;BME280;67862;0.000;0.000;2023-03-14T04:00:37;98089.19;;;21.59;63.00
78573;BME280;67862;0.000;0.000;2023-03-14T04:03:02;98083.13;;;21.62;63.44
78573;BME280;67862;0.000;0.000;2023-03-14T04:05:28;98083.13;;;21.62;63.25
78573;BME280;67862;0.000;0.000;2023-03-14T04:07:53;98084.53;;;21.59;62.97
78573;BME280;67862;0.000;0.000;2023-03-14T04:10:18;98085.03;;;21.61;63.34
78573;BME280;67862;0.000;0.000;2023-03-14T04:12:44;98079.56;;;21.61;63.29
78573;BME280;67862;0.000;0.000;2023-03-14T04:15:09;98081.00;;;21.59;63.31
78573;BME280;67862;0.000;0.000;2023-03-14T04:17:35;98088.59;;;21.62;63.16
78573;BME280;67862;0.000;0.000;2023-03-14T04:20:00;98082.47;;;21.65;63.20
78573;BME280;67862;0.000;0.000;2023-03-14T04:22:25;98074.94;;;21.62;63.14
78573;BME280;67862;0.000;0.000;2023-03-14T04:24:51;98082.94;;;21.58;63.31
78573;BME280;67862;0.000;0.000;2023-03-14T04:27:16;98075.88;;;21.57;63.50
78573;BME280;67862;0.000;0.000;2023-03-14T04:29:42;98081.00;;;21.59;63.33
78573;BME280;67862;0.000;0.000;2023-03-14T04:32:07;98082.13;;;21.58;63.65
78573;BME280;67862;0.000;0.000;2023-03-14T04:34:32;98086.00;;;21.57;63.50
78573;BME280;67862;0.000;0.000;2023-03-14T04:36:58;98081.66;;;21.56;63.32
78573;BME280;67862;0.000;0.000;2023-03-14T04:39:26;98083.09;;;21.53;63.54
78573;BME280;67862;0.000;0.000;2023-03-14T04:41:51;98074.91;;;21.53;63.46
78573;BME280;67862;0.000;0.000;2023-03-14T04:44:20;98069.25;;;21.50;63.43
78573;BME280;67862;0.000;0.000;2023-03-14T04:46:45;98059.13;;;21.50;63.33
78573;BME280;67862;0.000;0.000;2023-03-14T04:49:11;98059.94;;;21.51;63.58
78573;BME280;67862;0.000;0.000;2023-03-14T04:51:36;98066.72;;;21.53;63.68
78573;BME280;67862;0.000;0.000;2023-03-14T04:54:01;98065.91;;;21.53;63.63
78573;BME280;67862;0.000;0.000;2023-03-14T04:56:27;98075.72;;;21.54;63.44
78573;BME280;67862;0.000;0.000;2023-03-14T04:58:52;98073.31;;;21.52;63.79
78573;BME280;67862;0.000;0.000;2023-03-14T05:01:19;98072.97;;;21.54;63.66
78573;BME280;67862;0.000;0.000;2023-03-14T05:03:45;98063.19;;;21.53;63.22
78573;BME280;67862;0.000;0.000;2023-03-14T05:06:10;98065.41;;;21.51;63.05
78573;BME280;67862;0.000;0.000;2023-03-14T05:08:35;98060.44;;;21.53;63.32
78573;BME280;67862;0.000;0.000;2023-03-14T05:11:01;98061.53;;;21.52;63.08
78573;BME280;67862;0.000;0.000;2023-03-14T05:13:27;98061.38;;;21.48;63.07
78573;BME280;67862;0.000;0.000;2023-03-14T05:15:53;98060.59;;;21.48;63.35
78573;BME280;67862;0.000;0.000;2023-03-14T05:18:20;98058.53;;;21.53;63.35
78573;BME280;67862;0.000;0.000;2023-03-14T05:20:46;98049.03;;;21.51;63.29
78573;BME280;67862;0.000;0.000;2023-03-14T05:23:11;98056.72;;;21.49;63.24
78573;BME280;67862;0.000;0.000;2023-03-14T05:25:37;98060.59;;;21.48;63.12
78573;BME280;67862;0.000;0.000;2023-03-14T05:28:02;98071.06;;;21.54;63.62
78573;BME280;67862;0.000;0.000;2023-03-14T05:30:28;98061.53;;;21.52;63.26
78573;BME280;67862;0.000;0.000;2023-03-14T05:32:53;98063.78;;;21.50;63.30
78573;BME280;67862;0.000;0.000;2023-03-14T05:35:18;98055.94;;;21.48;63.25
78573;BME280;67862;0.000;0.000;2023-03-14T05:37:44;98052.88;;;21.50;63.41
78573;BME280;67862;0.000;0.000;2023-03-14T05:40:10;98045.00;;;21.48;63.51
78573;BME280;67862;0.000;0.000;2023-03-14T05:42:35;98040.34;;;21.49;63.19
78573;BME280;67862;0.000;0.000;2023-03-14T05:45:00;98046.63;;;21.49;63.60
78573;BME280;67862;0.000;0.000;2023-03-14T05:47:26;98041.00;;;21.46;63.13
78573;BME280;67862;0.000;0.000;2023-03-14T05:49:51;98045.66;;;21.45;63.04
78573;BME280;67862;0.000;0.000;2023-03-14T05:52:17;98045.16;;;21.43;63.09
78573;BME280;67862;0.000;0.000;2023-03-14T05:54:42;98049.50;;;21.44;63.12
78573;BME280;67862;0.000;0.000;2023-03-14T05:57:07;98048.53;;;21.49;63.02
78573;BME280;67862;0.000;0.000;2023-03-14T05:59:33;98049.66;;;21.48;63.20
78573;BME280;67862;0.000;0.000;2023-03-14T06:01:58;98054.00;;;21.49;63.35
78573;BME280;67862;0.000;0.000;2023-03-14T06:04:24;98054.31;;;21.47;63.25
78573;BME280;67862;0.000;0.000;2023-03-14T06:06:49;98044.03;;;21.44;63.38
78573;BME280;67862;0.000;0.000;2023-03-14T06:09:15;98051.59;;;21.47;62.72
78573;BME280;67862;0.000;0.000;2023-03-14T06:11:40;98062.84;;;21.46;63.19
78573;BME280;67862;0.000;0.000;2023-03-14T06:14:05;98061.22;;;21.45;63.24
78573;BME280;67862;0.000;0.000;2023-03-14T06:16:31;98051.44;;;21.43;62.81
78573;BME280;67862;0.000;0.000;2023-03-14T06:18:57;98055.59;;;21.41;62.71
78573;BME280;67862;0.000;0.000;2023-03-14T06:21:22;98054.97;;;21.44;62.82
78573;BME280;67862;0.000;0.000;2023-03-14T06:23:48;98054.16;;;21.43;62.91
78573;BME280;67862;0.000;0.000;2023-03-14T06:26:13;98047.38;;;21.41;63.00
78573;BME280;67862;0.000;0.000;2023-03-14T06:28:39;98040.00;;;21.41;62.81
78573;BME280;67862;0.000;0.000;2023-03-14T06:31:04;98041.78;;;21.46;62.69
78573;BME280;67862;0.000;0.000;2023-03-14T06:33:30;98032.31;;;21.43;62.88
78573;BME280;67862;0.000;0.000;2023-03-14T06:35:55;98044.84;;;21.45;62.68
78573;BME280;67862;0.000;0.000;2023-03-14T06:38:20;98044.38;;;21.42;62.66
78573;BME280;67862;0.000;0.000;2023-03-14T06:40:46;98045.34;;;21.47;62.66
78573;BME280;67862;0.000;0.000;2023-03-14T06:43:11;98048.88;;;21.47;62.72
78573;BME280;67862;0.000;0.000;2023-03-14T06:45:36;98042.91;;;21.45;62.28
78573;BME280;67862;0.000;0.000;2023-03-14T06:48:02;98058.34;;;21.58;63.16
78573;BME280;67862;0.000;0.000;2023-03-14T06:50:28;98051.81;;;20.80;57.46
78573;BME280;67862;0.000;0.000;2023-03-14T06:52:53;98065.16;;;20.37;57.09
78573;BME280;67862;0.000;0.000;2023-03-14T06:55:18;98064.28;;;20.27;57.00
78573;BME280;67862;0.000;0.000;2023-03-14T06:57:44;98063.72;;;20.17;55.84
78573;BME280;67862;0.000;0.000;2023-03-14T07:00:10;98062.88;;;20.08;55.01
78573;BME280;67862;0.000;0.000;2023-03-14T07:02:35;98053.13;;;20.15;55.77
78573;BME280;67862;0.000;0.000;2023-03-14T07:05:01;98050.03;;;20.08;55.36
78573;BME280;67862;0.000;0.000;2023-03-14T07:07:27;98053.13;;;20.15;55.21
78573;BME280;67862;0.000;0.000;2023-03-14T07:09:52;98057.69;;;20.06;54.05
78573;BME280;67862;0.000;0.000;2023-03-14T07:12:18;98053.50;;;20.00;53.78
78573;BME280;67862;0.000;0.000;2023-03-14T07:14:43;98055.78;;;20.07;54.52
78573;BME280;67862;0.000;0.000;2023-03-14T07:17:08;98040.47;;;19.97;53.57
78573;BME280;67862;0.000;0.000;2023-03-14T07:19:34;98043.91;;;20.02;53.71
78573;BME280;67862;0.000;0.000;2023-03-14T07:21:59;98040.19;;;19.98;53.04
78573;BME280;67862;0.000;0.000;2023-03-14T07:24:24;98030.91;;;20.44;55.38
78573;BME280;67862;0.000;0.000;2023-03-14T07:26:50;98032.66;;;20.71;56.88
78573;BME280;67862;0.000;0.000;2023-03-14T07:29:15;98022.66;;;20.89;56.83
78573;BME280;67862;0.000;0.000;2023-03-14T07:31:44;98022.22;;;21.04;57.35
78573;BME280;67862;0.000;0.000;2023-03-14T07:34:09;98020.94;;;21.10;56.84
78573;BME280;67862;0.000;0.000;2023-03-14T07:36:35;98020.19;;;21.19;57.08
78573;BME280;67862;0.000;0.000;2023-03-14T07:39:00;98024.34;;;21.16;57.03
78573;BME280;67862;0.000;0.000;2023-03-14T07:41:25;98022.44;;;21.25;56.90
78573;BME280;67862;0.000;0.000;2023-03-14T07:43:51;98025.38;;;21.29;56.75
78573;BME280;67862;0.000;0.000;2023-03-14T07:46:16;98021.69;;;21.33;56.62
78573;BME280;67862;0.000;0.000;2023-03-14T07:48:42;98013.19;;;21.35;56.60
78573;BME280;67862;0.000;0.000;2023-03-14T07:51:08;98019.94;;;21.37;56.78
78573;BME280;67862;0.000;0.000;2023-03-14T07:53:33;98009.50;;;21.39;56.76
78573;BME280;67862;0.000;0.000;2023-03-14T07:55:59;98011.91;;;21.41;57.27
78573;BME280;67862;0.000;0.000;2023-03-14T07:58:24;98012.69;;;21.41;57.29
78573;BME280;67862;0.000;0.000;2023-03-14T08:00:50;98014.50;;;21.46;57.79
78573;BME280;67862;0.000;0.000;2023-03-14T08:03:16;98004.84;;;21.49;57.12
78573;BME280;67862;0.000;0.000;2023-03-14T08:05:41;98012.41;;;21.52;57.25
78573;BME280;67862;0.000;0.000;2023-03-14T08:08:07;98015.78;;;21.49;57.69
78573;BME280;67862;0.000;0.000;2023-03-14T08:10:32;97996.84;;;21.52;57.65
78573;BME280;67862;0.000;0.000;2023-03-14T08:12:58;98009.06;;;21.55;57.59
78573;BME280;67862;0.000;0.000;2023-03-14T08:15:25;97988.47;;;21.57;57.82
78573;BME280;67862;0.000;0.000;2023-03-14T08:17:50;97984.31;;;21.60;57.53
78573;BME280;67862;0.000;0.000;2023-03-14T08:20:23;97984.31;;;21.60;57.72
78573;BME280;67862;0.000;0.000;2023-03-14T08:22:49;97980.94;;;21.63;57.64
78573;BME280;67862;0.000;0.000;2023-03-14T08:25:14;97975.50;;;21.63;57.46
78573;BME280;67862;0.000;0.000;2023-03-14T08:27:40;97966.50;;;21.62;57.27
78573;BME280;67862;0.000;0.000;2023-03-14T08:30:07;97969.69;;;21.64;57.51
78573;BME280;67862;0.000;0.000;2023-03-14T08:32:33;97974.84;;;21.66;57.58
78573;BME280;67862;0.000;0.000;2023-03-14T08:34:58;97975.97;;;21.65;57.17
78573;BME280;67862;0.000;0.000;2023-03-14T08:37:23;97967.44;;;21.66;57.34
78573;BME280;67862;0.000;0.000;2023-03-14T08:39:50;97984.63;;;21.67;57.61
78573;BME280;67862;0.000;0.000;2023-03-14T08:42:15;97980.28;;;21.66;57.43
78573;BME280;67862;0.000;0.000;2023-03-14T08:44:41;97977.72;;;21.69;57.49
78573;BME280;67862;0.000;0.000;2023-03-14T08:47:06;97993.31;;;21.69;57.59
78573;BME280;67862;0.000;0.000;2023-03-14T08:49:32;97977.38;;;21.71;57.65
78573;BME280;67862;0.000;0.000;2023-03-14T08:51:57;97980.13;;;21.71;57.58
78573;BME280;67862;0.000;0.000;2023-03-14T08:54:23;97982.84;;;21.71;57.57
78573;BME280;67862;0.000;0.000;2023-03-14T08:56:49;97983.84;;;21.75;57.33
78573;BME280;67862;0.000;0.000;2023-03-14T08:59:14;97978.53;;;21.79;57.53
78573;BME280;67862;0.000;0.000;2023-03-14T09:01:40;97969.53;;;21.87;58.12
78573;BME280;67862;0.000;0.000;2023-03-14T09:04:05;97957.13;;;21.89;58.02
78573;BME280;67862;0.000;0.000;2023-03-14T09:06:31;97954.75;;;21.79;57.72
78573;BME280;67862;0.000;0.000;2023-03-14T09:08:57;97944.47;;;21.76;56.94
78573;BME280;67862;0.000;0.000;2023-03-14T09:11:22;97938.53;;;21.74;56.78
78573;BME280;67862;0.000;0.000;2023-03-14T09:13:48;97931.94;;;21.66;56.21
78573;BME280;67862;0.000;0.000;2023-03-14T09:16:13;97945.44;;;21.63;56.42
78573;BME280;67862;0.000;0.000;2023-03-14T09:18:39;97932.59;;;21.63;56.59
78573;BME280;67862;0.000;0.000;2023-03-14T09:21:04;97932.59;;;21.63;56.90
78573;BME280;67862;0.000;0.000;2023-03-14T09:23:30;97935.00;;;21.65;56.75
78573;BME280;67862;0.000;0.000;2023-03-14T09:25:59;97940.78;;;21.63;56.65
78573;BME280;67862;0.000;0.000;2023-03-14T09:28:25;97933.41;;;21.64;56.95
78573;BME280;67862;0.000;0.000;2023-03-14T09:30:50;97917.63;;;21.61;56.96
78573;BME280;67862;0.000;0.000;2023-03-14T09:33:19;97919.56;;;21.60;56.61
78573;BME280;67862;0.000;0.000;2023-03-14T09:35:45;97909.94;;;21.63;56.70
78573;BME280;67862;0.000;0.000;2023-03-14T09:38:10;97908.34;;;21.62;56.52
78573;BME280;67862;0.000;0.000;2023-03-14T09:40:48;97906.72;;;21.61;56.36
78573;BME280;67862;0.000;0.000;2023-03-14T09:43:14;97909.94;;;21.63;56.42
78573;BME280;67862;0.000;0.000;2023-03-14T09:45:51;97922.47;;;21.64;56.05
78573;BME280;67862;0.000;0.000;2023-03-14T09:48:20;97908.34;;;21.62;56.13
78573;BME280;67862;0.000;0.000;2023-03-14T09:50:48;97909.13;;;21.62;56.67
78573;BME280;67862;0.000;0.000;2023-03-14T09:53:17;97909.63;;;21.64;56.47
78573;BME280;67862;0.000;0.000;2023-03-14T09:55:45;97890.81;;;21.63;56.00
78573;BME280;67862;0.000;0.000;2023-03-14T09:58:16;97896.59;;;21.61;55.70
78573;BME280;67862;0.000;0.000;2023-03-14T10:00:43;97893.06;;;21.61;56.30
78573;BME280;67862;0.000;0.000;2023-03-14T10:05:37;97874.25;;;21.59;55.04
78573;BME280;67862;0.000;0.000;2023-03-14T10:08:03;97879.41;;;21.61;55.68
78573;BME280;67862;0.000;0.000;2023-03-14T10:10:28;97870.72;;;21.59;55.10
78573;BME280;67862;0.000;0.000;2023-03-14T10:12:55;97866.41;;;21.58;55.86
78573;BME280;67862;0.000;0.000;2023-03-14T10:15:30;97862.22;;;21.60;55.69
78573;BME280;67862;0.000;0.000;2023-03-14T10:17:59;97861.91;;;21.62;55.27
78573;BME280;67862;0.000;0.000;2023-03-14T10:20:27;97863.50;;;21.63;55.14
78573;BME280;67862;0.000;0.000;2023-03-14T10:22:57;97846.00;;;21.64;55.24
78573;BME280;67862;0.000;0.000;2023-03-14T10:25:27;97843.28;;;21.64;54.95
78573;BME280;67862;0.000;0.000;2023-03-14T10:27:53;97835.56;;;21.66;54.96
78573;BME280;67862;0.000;0.000;2023-03-14T10:32:56;97841.00;;;21.66;53.79
78573;BME280;67862;0.000;0.000;2023-03-14T10:35:22;97831.22;;;21.65;54.60
78573;BME280;67862;0.000;0.000;2023-03-14T10:37:57;97830.09;;;21.66;54.05
78573;BME280;67862;0.000;0.000;2023-03-14T10:40:26;97842.28;;;21.68;54.16
78573;BME280;67862;0.000;0.000;2023-03-14T10:42:52;97840.03;;;21.70;54.09
78573;BME280;67862;0.000;0.000;2023-03-14T10:47:49;97811.28;;;21.73;54.55
78573;BME280;67862;0.000;0.000;2023-03-14T10:50:25;97826.53;;;21.74;54.27
78573;BME280;67862;0.000;0.000;2023-03-14T10:52:51;97826.06;;;21.72;54.25
78573;BME280;67862;0.000;0.000;2023-03-14T10:55:17;97818.00;;;21.76;54.43
78573;BME280;67862;0.000;0.000;2023-03-14T10:57:43;97812.22;;;21.77;54.47
78573;BME280;67862;0.000;0.000;2023-03-14T11:00:13;97809.81;;;21.76;54.42
78573;BME280;67862;0.000;0.000;2023-03-14T11:02:53;97797.63;;;21.73;54.10
78573;BME280;67862;0.000;0.000;2023-03-14T11:07:54;97802.75;;;21.75;54.46
78573;BME280;67862;0.000;0.000;2023-03-14T11:10:24;97788.31;;;21.74;54.26
78573;BME280;67862;0.000;0.000;2023-03-14T11:15:37;97776.38;;;21.79;54.33
78573;BME280;67862;0.000;0.000;2023-03-14T11:20:52;97771.09;;;21.82;54.13
78573;BME280;67862;0.000;0.000;2023-03-14T11:23:23;97766.22;;;21.88;54.04
78573;BME280;67862;0.000;0.000;2023-03-14T11:28:39;97743.88;;;21.94;53.94
78573;BME280;67862;0.000;0.000;2023-03-14T11:33:43;97745.28;;;22.00;53.91
78573;BME280;67862;0.000;0.000;2023-03-14T11:36:11;97738.38;;;22.03;53.82
78573;BME280;67862;0.000;0.000;2023-03-14T11:41:14;97736.38;;;22.21;57.00
78573;BME280;67862;0.000;0.000;2023-03-14T11:43:40;97728.25;;;22.33;56.28
78573;BME280;67862;0.000;0.000;2023-03-14T11:46:14;97728.03;;;22.38;56.39
78573;BME280;67862;0.000;0.000;2023-03-14T11:49:24;97724.84;;;22.36;57.16
78573;BME280;67862;0.000;0.000;2023-03-14T11:51:32;97716.06;;;22.31;57.11
78573;BME280;67862;0.000;0.000;2023-03-14T11:56:31;97693.97;;;22.36;56.51
78573;BME280;67862;0.000;0.000;2023-03-14T11:59:03;97698.56;;;22.23;56.70
78573;BME280;67862;0.000;0.000;2023-03-14T12:01:49;97701.31;;;22.23;57.06
78573;BME280;67862;0.000;0.000;2023-03-14T12:04:22;97697.91;;;22.26;56.19
78573;BME280;67862;0.000;0.000;2023-03-14T12:06:51;97689.25;;;22.24;56.49
78573;BME280;67862;0.000;0.000;2023-03-14T12:09:18;97687.63;;;22.23;56.42
78573;BME280;67862;0.000;0.000;2023-03-14T12:11:49;97683.31;;;22.22;56.38
78573;BME280;67862;0.000;0.000;2023-03-14T12:16:46;97681.50;;;22.26;56.25
78573;BME280;67862;0.000;0.000;2023-03-14T12:19:21;97675.34;;;22.29;56.34
78573;BME280;67862;0.000;0.000;2023-03-14T12:21:51;97669.88;;;22.29;55.54
78573;BME280;67862;0.000;0.000;2023-03-14T12:24:19;97674.09;;;22.26;55.40
78573;BME280;67862;0.000;0.000;2023-03-14T12:26:57;97661.56;;;22.25;55.51
78573;BME280;67862;0.000;0.000;2023-03-14T12:29:23;97657.22;;;22.24;55.82
78573;BME280;67862;0.000;0.000;2023-03-14T12:31:49;97651.75;;;22.24;55.87
78573;BME280;67862;0.000;0.000;2023-03-14T12:34:33;97667.91;;;22.38;55.11
78573;BME280;67862;0.000;0.000;2023-03-14T12:44:38;97640.16;;;22.27;55.40
78573;BME280;67862;0.000;0.000;2023-03-14T12:49:43;97633.91;;;22.27;55.10
78573;BME280;67862;0.000;0.000;2023-03-14T12:55:02;97630.56;;;22.21;54.75
78573;BME280;67862;0.000;0.000;2023-03-14T12:57:28;97625.09;;;22.21;54.20
78573;BME280;67862;0.000;0.000;2023-03-14T12:59:57;97623.50;;;22.20;53.65
78573;BME280;67862;0.000;0.000;2023-03-14T13:10:09;97600.56;;;22.13;54.58
78573;BME280;67862;0.000;0.000;2023-03-14T13:12:49;97606.84;;;22.13;54.21
78573;BME280;67862;0.000;0.000;2023-03-14T13:18:08;97608.97;;;22.08;54.32
78573;BME280;67862;0.000;0.000;2023-03-14T13:20:36;97602.19;;;22.05;54.35
78573;BME280;67862;0.000;0.000;2023-03-14T13:23:02;97598.22;;;22.03;53.34
78573;BME280;67862;0.000;0.000;2023-03-14T13:25:34;97596.13;;;21.99;53.74
78573;BME280;67862;0.000;0.000;2023-03-14T13:28:01;97596.13;;;21.99;53.66
78573;BME280;67862;0.000;0.000;2023-03-14T13:30:27;97598.41;;;21.97;53.81
78573;BME280;67862;0.000;0.000;2023-03-14T13:32:54;97603.84;;;21.97;53.44
78573;BME280;67862;0.000;0.000;2023-03-14T13:35:27;97593.25;;;21.96;53.03
78573;BME280;67862;0.000;0.000;2023-03-14T13:37:54;97596.78;;;21.96;53.18
78573;BME280;67862;0.000;0.000;2023-03-14T13:40:23;97606.41;;;22.03;52.43
78573;BME280;67862;0.000;0.000;2023-03-14T13:42:49;97602.72;;;21.98;52.42
78573;BME280;67862;0.000;0.000;2023-03-14T13:45:14;97604.19;;;21.96;52.86
78573;BME280;67862;0.000;0.000;2023-03-14T13:47:39;97610.78;;;21.95;52.64
78573;BME280;67862;0.000;0.000;2023-03-14T13:50:11;97612.25;;;21.92;52.55
78573;BME280;67862;0.000;0.000;2023-03-14T13:52:38;97616.13;;;21.91;51.68
78573;BME280;67862;0.000;0.000;2023-03-14T13:55:04;97611.47;;;21.92;51.58
78573;BME280;67862;0.000;0.000;2023-03-14T14:00:18;97601.50;;;21.87;51.94
78573;BME280;67862;0.000;0.000;2023-03-14T14:02:44;97603.13;;;21.88;51.58
78573;BME280;67862;0.000;0.000;2023-03-14T14:05:10;97594.28;;;21.91;51.78
78573;BME280;67862;0.000;0.000;2023-03-14T14:07:36;97601.75;;;22.03;52.18
78573;BME280;67862;0.000;0.000;2023-03-14T14:10:03;97600.75;;;22.08;52.25
78573;BME280;67862;0.000;0.000;2023-03-14T14:12:30;97599.78;;;22.12;52.79
78573;BME280;67862;0.000;0.000;2023-03-14T14:14:59;97595.75;;;22.10;52.80